createdAt,value
2018-02-12T00:01:32.901Z,77.90
2018-02-12T00:04:01.285Z,78.00
2018-02-12T00:06:30.431Z,77.80
2018-02-12T00:08:59.050Z,77.60
2018-02-12T00:11:27.666Z,77.40
2018-02-12T00:13:56.340Z,77.60
2018-02-12T00:16:26.446Z,77.70
2018-02-12T00:18:55.684Z,78.10
2018-02-12T00:21:24.274Z,77.90
2018-02-12T00:23:52.650Z,77.80
2018-02-12T00:26:21.008Z,77.70
2018-02-12T00:28:50.158Z,77.30
2018-02-12T00:31:18.523Z,77.30
2018-02-12T00:33:47.091Z,77.30
2018-02-12T00:36:15.459Z,77.10
2018-02-12T00:38:43.825Z,77.00
2018-02-12T00:41:12.211Z,76.50
2018-02-12T00:43:40.580Z,77.20
2018-02-12T00:46:09.284Z,76.90
2018-02-12T00:48:37.651Z,76.80
2018-02-12T00:51:06.019Z,76.70
2018-02-12T00:53:35.168Z,76.80
2018-02-12T00:56:03.534Z,76.80
2018-02-12T00:58:32.204Z,76.70
2018-02-12T01:01:00.563Z,76.90
2018-02-12T01:03:28.924Z,76.80
2018-02-12T01:05:58.086Z,76.80
2018-02-12T01:08:26.571Z,76.80
2018-02-12T01:10:54.975Z,76.60
2018-02-12T01:13:24.100Z,76.90
2018-02-12T01:15:52.458Z,76.90
2018-02-12T01:18:21.600Z,76.30
2018-02-12T01:20:49.968Z,76.30
2018-02-12T01:23:18.365Z,76.30
2018-02-12T01:25:46.731Z,76.60
2018-02-12T01:28:15.089Z,76.90
2018-02-12T01:30:43.466Z,76.10
2018-02-12T01:33:11.826Z,76.40
2018-02-12T01:35:41.026Z,75.80
2018-02-12T01:38:10.148Z,75.90
2018-02-12T01:40:38.509Z,75.90
2018-02-12T01:43:06.901Z,75.80
2018-02-12T01:45:35.264Z,75.70
2018-02-12T01:48:03.856Z,75.70
2018-02-12T01:50:32.207Z,75.60
2018-02-12T01:53:01.329Z,75.90
2018-02-12T01:55:29.713Z,75.90
2018-02-12T01:57:58.073Z,75.80
2018-02-12T02:00:26.488Z,75.90
2018-02-12T02:02:54.862Z,75.80
2018-02-12T02:05:23.221Z,75.80
2018-02-12T02:07:51.608Z,75.80
2018-02-12T02:10:19.968Z,75.60
2018-02-12T02:12:48.564Z,75.50
2018-02-12T02:15:16.915Z,75.60
2018-02-12T02:17:46.037Z,75.70
2018-02-12T02:20:14.416Z,75.80
2018-02-12T02:22:42.779Z,75.70
2018-02-12T02:25:11.179Z,75.70
2018-02-12T02:27:39.540Z,75.70
2018-02-12T02:30:07.908Z,75.60
2018-02-12T02:32:37.053Z,75.50
2018-02-12T02:35:05.408Z,75.40
2018-02-12T02:37:33.993Z,75.40
2018-02-12T02:40:02.351Z,75.60
2018-02-12T02:42:30.710Z,75.70
2018-02-12T02:45:00.529Z,75.70
2018-02-12T02:47:28.891Z,75.70
2018-02-12T02:49:57.420Z,75.40
2018-02-12T02:52:25.784Z,75.50
2018-02-12T02:54:54.154Z,75.80
2018-02-12T02:57:22.531Z,75.90
2018-02-12T02:59:50.914Z,76.10
2018-02-12T03:02:19.340Z,76.20
2018-02-12T03:04:47.758Z,76.00
2018-02-12T03:07:16.888Z,75.90
2018-02-12T03:09:45.276Z,75.90
2018-02-12T03:12:13.632Z,75.90
2018-02-12T03:14:42.228Z,75.80
2018-02-12T03:17:10.593Z,75.60
2018-02-12T03:19:38.944Z,75.50
2018-02-12T03:22:08.093Z,75.40
2018-02-12T03:24:36.457Z,75.40
2018-02-12T03:27:05.040Z,75.70
2018-02-12T03:29:33.393Z,75.00
2018-02-12T03:32:01.757Z,75.00
2018-02-12T03:34:30.904Z,75.20
2018-02-12T03:36:59.265Z,75.10
2018-02-12T03:39:27.640Z,75.40
2018-02-12T03:41:56.021Z,75.10
2018-02-12T03:44:24.371Z,75.00
2018-02-12T03:46:53.516Z,74.90
2018-02-12T03:49:21.881Z,74.90
2018-02-12T03:51:50.284Z,74.70
2018-02-12T03:54:18.640Z,74.20
2018-02-12T03:56:47.006Z,74.80
2018-02-12T03:59:15.414Z,74.40
2018-02-12T04:01:43.781Z,74.20
2018-02-12T04:04:12.453Z,74.20
2018-02-12T04:06:40.830Z,74.40
2018-02-12T04:09:09.184Z,74.70
2018-02-12T04:11:38.335Z,74.40
2018-02-12T04:14:06.686Z,74.50
2018-02-12T04:16:35.588Z,74.70
2018-02-12T04:19:03.950Z,75.40
2018-02-12T04:21:32.304Z,74.30
2018-02-12T04:24:01.456Z,74.70
2018-02-12T04:26:29.815Z,74.70
2018-02-12T04:28:58.230Z,74.60
2018-02-12T04:31:28.101Z,74.30
2018-02-12T04:33:56.469Z,74.30
2018-02-12T04:36:24.860Z,74.10
2018-02-12T04:38:53.224Z,74.00
2018-02-12T04:41:21.817Z,74.40
2018-02-12T04:43:50.174Z,74.50
2018-02-12T04:46:18.544Z,74.30
2018-02-12T04:48:47.697Z,74.00
2018-02-12T04:51:16.057Z,74.00
2018-02-12T04:53:44.624Z,74.00
2018-02-12T04:56:12.984Z,74.00
2018-02-12T04:58:42.104Z,73.50
2018-02-12T05:01:10.487Z,73.50
2018-02-12T05:03:38.843Z,73.40
2018-02-12T05:06:07.442Z,73.30
2018-02-12T05:08:35.809Z,73.20
2018-02-12T05:11:04.183Z,73.30
2018-02-12T05:13:32.569Z,73.30
2018-02-12T05:16:00.944Z,73.20
2018-02-12T05:18:29.549Z,73.40
2018-02-12T05:20:58.081Z,73.70
2018-02-12T05:23:27.205Z,73.50
2018-02-12T05:25:55.585Z,73.40
2018-02-12T05:28:23.949Z,73.50
2018-02-12T05:30:53.389Z,73.60
2018-02-12T05:33:21.744Z,73.60
2018-02-12T05:35:50.110Z,73.50
2018-02-12T05:38:19.260Z,73.20
2018-02-12T05:40:49.330Z,73.20
2018-02-12T05:43:17.768Z,72.90
2018-02-12T05:45:51.881Z,73.00
2018-02-12T05:48:20.632Z,73.30
2018-02-12T05:50:48.984Z,73.10
2018-02-12T05:53:17.345Z,73.00
2018-02-12T05:55:46.552Z,73.00
2018-02-12T05:58:15.676Z,73.30
2018-02-12T06:00:44.359Z,73.30
2018-02-12T06:03:12.716Z,73.40
2018-02-12T06:05:41.845Z,72.80
2018-02-12T06:08:10.262Z,72.70
2018-02-12T06:10:38.617Z,72.90
2018-02-12T06:13:07.108Z,72.70
2018-02-12T06:15:35.463Z,72.60
2018-02-12T06:18:03.832Z,72.20
2018-02-12T06:20:32.232Z,71.80
2018-02-12T06:23:00.588Z,71.00
2018-02-12T06:25:30.762Z,71.00
2018-02-12T06:27:59.136Z,71.30
2018-02-12T06:30:27.494Z,71.40
2018-02-12T06:32:55.888Z,71.20
2018-02-12T06:35:24.249Z,71.60
2018-02-12T06:37:54.000Z,71.30
2018-02-12T06:40:22.718Z,70.80
2018-02-12T06:42:51.113Z,70.60
2018-02-12T06:45:19.507Z,70.30
2018-02-12T06:47:47.880Z,70.40
2018-02-12T06:50:16.287Z,70.20
2018-02-12T06:52:44.722Z,69.80
2018-02-12T06:55:13.130Z,69.40
2018-02-12T06:57:41.520Z,69.80
2018-02-12T07:00:09.880Z,70.10
2018-02-12T07:02:38.272Z,70.20
2018-02-12T07:05:06.651Z,70.40
2018-02-12T07:07:35.072Z,70.00
2018-02-12T07:10:03.473Z,69.70
2018-02-12T07:12:31.852Z,69.00
2018-02-12T07:15:07.571Z,69.40
2018-02-12T07:17:35.946Z,69.30
2018-02-12T07:20:04.326Z,69.30
2018-02-12T07:22:32.705Z,69.10
2018-02-12T07:25:01.104Z,68.90
2018-02-12T07:27:29.681Z,69.20
2018-02-12T07:29:58.052Z,69.60
2018-02-12T07:32:26.408Z,69.20
2018-02-12T07:34:55.555Z,69.30
2018-02-12T07:37:23.928Z,69.30
2018-02-12T07:39:52.342Z,69.30
2018-02-12T07:42:20.724Z,69.40
2018-02-12T07:44:49.094Z,69.40
2018-02-12T07:47:17.486Z,69.50
2018-02-12T07:49:45.855Z,69.30
2018-02-12T07:52:14.705Z,70.00
2018-02-12T07:54:43.079Z,69.40
2018-02-12T07:57:12.251Z,69.30
2018-02-12T07:59:40.632Z,69.20
2018-02-12T08:02:08.996Z,68.90
2018-02-12T08:04:38.332Z,69.10
2018-02-12T08:07:06.692Z,69.00
2018-02-12T08:09:35.055Z,68.60
2018-02-12T08:12:04.207Z,68.00
2018-02-12T08:14:32.584Z,68.00
2018-02-12T08:17:01.119Z,67.40
2018-02-12T08:19:30.243Z,66.90
2018-02-12T08:21:58.597Z,66.90
2018-02-12T08:24:26.981Z,67.00
2018-02-12T08:26:55.350Z,66.30
2018-02-12T08:29:23.910Z,66.30
2018-02-12T08:31:52.269Z,65.80
2018-02-12T08:34:20.636Z,65.10
2018-02-12T08:36:49.016Z,64.00
2018-02-12T08:39:17.381Z,64.10
2018-02-12T08:41:45.953Z,62.90
2018-02-12T08:44:14.313Z,60.60
2018-02-12T08:46:42.678Z,57.70
2018-02-12T08:49:11.109Z,55.60
2018-02-12T08:51:39.485Z,54.90
2018-02-12T08:54:08.152Z,52.90
2018-02-12T08:56:36.516Z,50.10
2018-02-12T08:59:04.893Z,46.90
2018-02-12T09:01:33.305Z,44.30
2018-02-12T09:04:01.707Z,40.70
2018-02-12T09:06:30.105Z,38.10
2018-02-12T09:08:59.245Z,34.80
2018-02-12T09:11:27.936Z,34.80
2018-02-12T09:13:56.334Z,33.00
2018-02-12T09:16:24.723Z,32.10
2018-02-12T09:18:53.122Z,29.30
2018-02-12T09:21:22.254Z,29.20
2018-02-12T09:23:50.653Z,29.20
2018-02-12T09:26:19.024Z,29.00
2018-02-12T09:28:47.455Z,28.60
2018-02-12T09:31:16.682Z,29.80
2018-02-12T09:33:45.053Z,29.70
2018-02-12T09:36:13.441Z,32.70
2018-02-12T09:38:41.816Z,35.40
2018-02-12T09:41:10.206Z,35.70
2018-02-12T09:43:38.589Z,36.70
2018-02-12T09:46:06.991Z,36.20
2018-02-12T09:48:35.357Z,36.80
2018-02-12T09:51:03.735Z,34.80
2018-02-12T09:53:32.116Z,34.10
2018-02-12T09:56:00.492Z,34.30
2018-02-12T09:58:28.941Z,35.30
2018-02-12T10:00:57.348Z,36.50
2018-02-12T10:03:25.993Z,38.30
2018-02-12T10:05:55.116Z,38.80
2018-02-12T10:08:23.490Z,38.70
2018-02-12T10:10:51.888Z,40.10
2018-02-12T10:13:20.252Z,41.00
2018-02-12T10:15:48.634Z,42.20
2018-02-12T10:18:17.055Z,43.70
2018-02-12T10:20:45.561Z,44.60
2018-02-12T10:23:14.698Z,42.80
2018-02-12T10:25:43.061Z,42.70
2018-02-12T10:28:11.453Z,37.40
2018-02-12T10:30:39.824Z,33.50
2018-02-12T10:33:08.224Z,31.50
2018-02-12T10:35:36.594Z,30.30
2018-02-12T10:38:05.261Z,29.80
2018-02-12T10:40:33.628Z,29.50
2018-02-12T10:43:02.004Z,30.30
2018-02-12T10:45:30.404Z,31.80
2018-02-12T10:47:58.777Z,33.90
2018-02-12T10:50:27.172Z,35.00
2018-02-12T10:52:55.543Z,35.60
2018-02-12T10:55:24.117Z,35.80
2018-02-12T10:57:52.506Z,35.50
2018-02-12T11:00:21.225Z,35.60
2018-02-12T11:02:49.687Z,35.40
2018-02-12T11:05:18.045Z,37.40
2018-02-12T11:07:46.431Z,38.00
2018-02-12T11:10:14.784Z,38.60
2018-02-12T11:12:43.269Z,39.80
2018-02-12T11:15:11.644Z,40.70
2018-02-12T11:17:40.020Z,43.10
2018-02-12T11:20:09.203Z,45.40
2018-02-12T11:22:38.336Z,48.40
2018-02-12T11:25:06.716Z,48.40
2018-02-12T11:27:35.094Z,47.60
2018-02-12T11:30:03.501Z,45.70
2018-02-12T11:32:31.888Z,43.30
2018-02-12T11:35:00.255Z,38.30
2018-02-12T11:37:28.650Z,34.60
2018-02-12T11:39:57.019Z,29.90
2018-02-12T11:42:25.417Z,28.70
2018-02-12T11:44:54.622Z,28.20
2018-02-12T11:47:23.957Z,28.40
2018-02-12T11:49:52.325Z,28.40
2018-02-12T11:52:20.700Z,30.10
2018-02-12T11:54:49.099Z,32.40
2018-02-12T11:57:17.468Z,33.30
2018-02-12T11:59:45.863Z,34.00
2018-02-12T12:02:14.225Z,35.90
2018-02-12T12:04:42.816Z,36.30
2018-02-12T12:07:11.175Z,37.10
2018-02-12T12:09:39.536Z,38.40
2018-02-12T12:12:08.728Z,34.00
2018-02-12T12:14:37.869Z,33.70
2018-02-12T12:17:06.262Z,33.70
2018-02-12T12:19:34.633Z,33.40
2018-02-12T12:22:03.298Z,32.20
2018-02-12T12:24:31.674Z,30.50
2018-02-12T12:27:00.129Z,28.80
2018-02-12T12:29:29.274Z,35.10
2018-02-12T12:31:57.656Z,35.10
2018-02-12T12:34:26.074Z,39.10
2018-02-12T12:36:55.253Z,45.10
2018-02-12T12:39:23.892Z,45.00
2018-02-12T12:41:52.260Z,47.30
2018-02-12T12:44:20.614Z,46.90
2018-02-12T12:46:49.768Z,47.20
2018-02-12T12:49:18.142Z,47.30
2018-02-12T12:51:46.604Z,45.00
2018-02-12T12:54:14.972Z,40.50
2018-02-12T12:56:43.388Z,37.40
2018-02-12T12:59:11.761Z,36.40
2018-02-12T13:01:40.151Z,36.80
2018-02-12T13:04:08.545Z,36.30
2018-02-12T13:06:37.667Z,44.30
2018-02-12T13:09:06.945Z,45.30
2018-02-12T13:11:36.097Z,39.00
2018-02-12T13:14:04.525Z,39.00
2018-02-12T13:16:33.676Z,29.80
2018-02-12T13:19:02.054Z,29.80
2018-02-12T13:21:30.476Z,27.80
2018-02-12T13:23:59.631Z,25.10
2018-02-12T13:26:28.034Z,25.10
2018-02-12T13:28:56.417Z,23.40
2018-02-12T13:31:24.838Z,22.60
2018-02-12T13:33:53.221Z,21.20
2018-02-12T13:36:21.585Z,20.80
2018-02-12T13:38:49.981Z,21.80
2018-02-12T13:41:18.345Z,20.80
2018-02-12T13:43:46.740Z,19.80
2018-02-12T13:46:15.113Z,20.70
2018-02-12T13:48:43.625Z,19.90
2018-02-12T13:51:12.004Z,20.80
2018-02-12T13:53:40.582Z,20.90
2018-02-12T13:56:08.990Z,22.80
2018-02-12T13:58:37.357Z,24.80
2018-02-12T14:01:05.756Z,25.80
2018-02-12T14:03:34.247Z,27.80
2018-02-12T14:06:03.581Z,31.10
2018-02-12T14:08:31.955Z,31.00
2018-02-12T14:11:00.325Z,32.90
2018-02-12T14:13:28.714Z,33.90
2018-02-12T14:15:57.081Z,35.50
2018-02-12T14:18:25.468Z,36.70
2018-02-12T14:20:53.825Z,38.20
2018-02-12T14:23:23.082Z,40.30
2018-02-12T14:25:51.457Z,40.30
2018-02-12T14:28:19.821Z,41.30
2018-02-12T14:30:48.214Z,42.20
2018-02-12T14:33:16.651Z,43.50
2018-02-12T14:35:45.061Z,44.60
2018-02-12T14:38:13.455Z,45.70
2018-02-12T14:40:42.041Z,45.50
2018-02-12T14:43:10.930Z,45.40
2018-02-12T14:45:39.308Z,45.40
2018-02-12T14:48:07.875Z,45.30
2018-02-12T14:50:36.242Z,44.70
2018-02-12T14:53:04.702Z,44.00
2018-02-12T14:55:33.068Z,43.10
2018-02-12T14:58:02.432Z,43.90
2018-02-12T15:00:30.816Z,43.90
2018-02-12T15:03:00.679Z,44.40
2018-02-12T15:05:29.073Z,44.40
2018-02-12T15:07:57.436Z,46.10
2018-02-12T15:10:26.331Z,48.30
2018-02-12T15:12:54.710Z,49.60
2018-02-12T15:15:23.252Z,50.30
2018-02-12T15:17:51.771Z,49.00
2018-02-12T15:20:20.124Z,48.90
2018-02-12T15:22:49.313Z,50.30
2018-02-12T15:25:18.516Z,51.10
2018-02-12T15:27:47.664Z,51.10
2018-02-12T15:30:16.033Z,51.10
2018-02-12T15:32:44.605Z,51.20
2018-02-12T15:35:13.901Z,51.40
2018-02-12T15:37:42.336Z,51.70
2018-02-12T15:40:11.501Z,51.00
2018-02-12T15:42:39.858Z,51.30
2018-02-12T15:45:08.245Z,51.70
2018-02-12T15:47:36.733Z,51.60
2018-02-12T15:50:05.175Z,52.80
2018-02-12T15:52:34.473Z,52.50
2018-02-12T15:55:03.643Z,52.60
2018-02-12T15:57:32.172Z,52.60
2018-02-12T16:00:00.853Z,52.90
2018-02-12T16:02:29.292Z,52.70
2018-02-12T16:04:57.839Z,52.60
2018-02-12T16:07:26.261Z,52.60
2018-02-12T16:09:54.656Z,52.50
2018-02-12T16:12:24.010Z,52.70
2018-02-12T16:14:52.386Z,52.70
2018-02-12T16:17:20.747Z,52.90
2018-02-12T16:19:49.129Z,52.80
2018-02-12T16:22:17.510Z,53.00
2018-02-12T16:24:45.893Z,53.10
2018-02-12T16:27:14.284Z,53.30
2018-02-12T16:29:42.704Z,53.50
2018-02-12T16:32:11.828Z,54.00
2018-02-12T16:34:40.221Z,54.10
2018-02-12T16:37:08.609Z,54.70
2018-02-12T16:39:37.359Z,54.10
2018-02-12T16:42:05.948Z,54.30
2018-02-12T16:44:34.340Z,54.50
2018-02-12T16:47:02.929Z,54.50
2018-02-12T16:49:31.289Z,54.50
2018-02-12T16:51:59.715Z,54.60
2018-02-12T16:54:28.101Z,54.50
2018-02-12T16:56:57.228Z,54.80
2018-02-12T16:59:25.609Z,54.80
2018-02-12T17:01:54.745Z,55.20
2018-02-12T17:04:23.317Z,55.20
2018-02-12T17:06:52.404Z,55.30
2018-02-12T17:09:21.007Z,55.30
2018-02-12T17:11:49.821Z,55.30
2018-02-12T17:14:19.194Z,55.40
2018-02-12T17:16:48.078Z,55.30
2018-02-12T17:19:16.497Z,55.40
2018-02-12T17:21:44.890Z,56.00
2018-02-12T17:24:14.224Z,56.00
2018-02-12T17:26:42.629Z,56.00
2018-02-12T17:29:11.527Z,56.60
2018-02-12T17:31:40.124Z,56.70
2018-02-12T17:34:08.879Z,56.10
2018-02-12T17:36:37.260Z,55.90
2018-02-12T17:39:05.873Z,55.70
2018-02-12T17:41:34.713Z,55.70
2018-02-12T17:44:03.064Z,55.30
2018-02-12T17:46:32.233Z,55.00
2018-02-12T17:49:00.598Z,55.00
2018-02-12T17:51:28.977Z,55.10
2018-02-12T17:53:57.369Z,55.20
2018-02-12T17:56:27.258Z,55.10
2018-02-12T17:58:55.625Z,55.10
2018-02-12T18:01:23.988Z,55.10
2018-02-12T18:03:52.903Z,55.50
2018-02-12T18:06:21.485Z,56.40
2018-02-12T18:08:49.999Z,56.80
2018-02-12T18:11:18.388Z,57.50
2018-02-12T18:13:47.532Z,58.10
2018-02-12T18:16:15.920Z,59.00
2018-02-12T18:18:44.277Z,60.10
2018-02-12T18:21:12.809Z,61.40
2018-02-12T18:23:41.254Z,61.00
2018-02-12T18:26:09.720Z,61.60
2018-02-12T18:28:38.137Z,62.10
2018-02-12T18:31:06.817Z,62.50
2018-02-12T18:33:35.285Z,62.20
2018-02-12T18:36:03.703Z,62.40
2018-02-12T18:38:32.085Z,62.20
2018-02-12T18:41:00.458Z,62.30
2018-02-12T18:43:30.494Z,62.20
2018-02-12T18:45:59.629Z,62.20
2018-02-12T18:48:28.233Z,62.10
2018-02-12T18:50:56.697Z,62.40
2018-02-12T18:53:25.118Z,62.10
2018-02-12T18:55:54.281Z,62.40
2018-02-12T18:58:22.660Z,61.90
2018-02-12T19:00:51.066Z,61.80
2018-02-12T19:03:19.445Z,61.80
2018-02-12T19:05:48.745Z,61.70
2018-02-12T19:08:18.632Z,61.50
2018-02-12T19:10:46.992Z,61.50
2018-02-12T19:13:15.469Z,61.40
2018-02-12T19:15:43.838Z,61.50
2018-02-12T19:18:12.620Z,61.40
2018-02-12T19:20:41.000Z,61.50
2018-02-12T19:23:09.641Z,61.50
2018-02-12T19:25:38.003Z,61.50
2018-02-12T19:28:06.373Z,61.30
2018-02-12T19:30:35.036Z,61.10
2018-02-12T19:33:03.474Z,61.20
2018-02-12T19:35:32.220Z,61.10
2018-02-12T19:38:00.613Z,61.40
2018-02-12T19:40:29.270Z,61.40
2018-02-12T19:42:57.710Z,61.40
2018-02-12T19:45:26.841Z,61.40
2018-02-12T19:47:57.739Z,61.40
2018-02-12T19:50:27.045Z,61.80
2018-02-12T19:52:56.668Z,61.80
2018-02-12T19:55:26.370Z,61.70
2018-02-12T19:57:55.705Z,61.80
2018-02-12T20:00:24.171Z,61.70
2018-02-12T20:02:53.155Z,62.00
2018-02-12T20:05:21.954Z,62.40
2018-02-12T20:07:50.459Z,64.60
2018-02-12T20:10:19.801Z,67.70
2018-02-12T20:12:50.956Z,67.90
2018-02-12T20:15:20.114Z,67.50
2018-02-12T20:17:48.541Z,67.50
2018-02-12T20:20:17.768Z,67.40
2018-02-12T20:22:46.214Z,67.40
2018-02-12T20:25:15.991Z,66.80
2018-02-12T20:27:44.850Z,66.70
2018-02-12T20:30:13.249Z,66.60
2018-02-12T20:32:42.273Z,66.70
2018-02-12T20:35:10.701Z,66.70
2018-02-12T20:37:39.285Z,66.70
2018-02-12T20:40:08.647Z,66.40
2018-02-12T20:42:37.970Z,66.00
2018-02-12T20:45:08.538Z,66.20
2018-02-12T20:47:37.617Z,66.10
2018-02-12T20:50:06.603Z,65.80
2018-02-12T20:52:35.300Z,65.90
2018-02-12T20:55:04.007Z,66.50
2018-02-12T20:57:32.429Z,66.50
2018-02-12T21:00:01.147Z,66.50
2018-02-12T21:02:30.524Z,66.50
2018-02-12T21:05:00.741Z,66.50
2018-02-12T21:07:30.067Z,66.30
2018-02-12T21:09:59.316Z,66.40
2018-02-12T21:12:28.510Z,66.30
2018-02-12T21:14:57.689Z,66.40
2018-02-12T21:17:27.066Z,66.40
2018-02-12T21:19:57.486Z,66.30
2018-02-12T21:22:25.871Z,66.20
2018-02-12T21:24:54.756Z,66.30
2018-02-12T21:27:24.832Z,66.70
2018-02-12T21:29:54.868Z,66.60
2018-02-12T21:32:23.703Z,66.70
2018-02-12T21:34:53.301Z,67.70
2018-02-12T21:37:23.939Z,67.10
2018-02-12T21:39:53.638Z,67.80
2018-02-12T21:42:23.054Z,67.10
2018-02-12T21:44:52.832Z,67.30
2018-02-12T21:47:21.988Z,67.30
2018-02-12T21:49:51.038Z,67.40
2018-02-12T21:52:20.926Z,67.40
2018-02-12T21:54:49.444Z,67.20
2018-02-12T21:57:18.257Z,67.50
2018-02-12T21:59:47.037Z,67.20
2018-02-12T22:02:15.738Z,66.80
2018-02-12T22:04:45.304Z,66.80
2018-02-12T22:07:14.009Z,66.80
2018-02-12T22:09:43.267Z,65.90
2018-02-12T22:12:12.617Z,66.30
2018-02-12T22:14:42.527Z,66.20
2018-02-12T22:17:11.037Z,66.10
2018-02-12T22:19:40.348Z,65.80
2018-02-12T22:22:08.934Z,65.80
2018-02-12T22:24:37.395Z,65.70
2018-02-12T22:27:07.074Z,65.10
2018-02-12T22:29:35.812Z,65.10
2018-02-12T22:32:04.569Z,64.80
2018-02-12T22:34:32.983Z,64.80
2018-02-12T22:37:01.377Z,64.60
2018-02-12T22:39:30.674Z,64.30
2018-02-12T22:41:59.033Z,64.10
2018-02-12T22:44:27.415Z,63.90
2018-02-12T22:46:55.849Z,63.90
2018-02-12T22:49:24.213Z,63.90
2018-02-12T22:51:52.578Z,64.00
2018-02-12T22:54:20.997Z,63.60
2018-02-12T22:56:50.138Z,63.60
2018-02-12T22:59:18.633Z,63.60
2018-02-12T23:01:47.053Z,63.60
2018-02-12T23:04:15.448Z,63.60
2018-02-12T23:06:44.588Z,63.50
2018-02-12T23:09:12.992Z,63.50
2018-02-12T23:11:42.142Z,64.30
2018-02-12T23:14:10.609Z,64.30
2018-02-12T23:16:51.463Z,64.50
2018-02-12T23:19:22.139Z,64.80
2018-02-12T23:21:51.356Z,65.40
2018-02-12T23:24:19.722Z,65.40
2018-02-12T23:26:48.089Z,65.50
2018-02-12T23:29:16.477Z,66.10
2018-02-12T23:31:44.837Z,66.30
2018-02-12T23:34:13.188Z,66.30
2018-02-12T23:36:42.629Z,66.60
2018-02-12T23:39:11.004Z,66.60
2018-02-12T23:41:39.604Z,66.50
2018-02-12T23:44:08.005Z,66.50
2018-02-12T23:46:36.508Z,66.50
2018-02-12T23:49:09.919Z,66.50
2018-02-12T23:51:38.848Z,66.50
2018-02-12T23:54:07.212Z,66.70
2018-02-12T23:56:35.564Z,66.80
2018-02-12T23:59:04.736Z,66.80
